Time;durP1;ratioP1;P1;durP2;ratioP2;P2;SDS_P1;SDS_P2;PMS_P1;PMS_P2;Temp;Humidity;BMP_temperature;BMP_pressure;BME280_temperature;BME280_humidity;BME280_pressure;Samples;Min_cycle;Max_cycle;Signal;HPM_P1;HPM_P2
2022/04/20 00:01:38;;;;;;;6.97;3.80;;;;;;;10.09;58.65;97855.19;4127433;28;20643;-82
2022/04/20 00:03:44;;;;;;;4.27;3.67;;;;;;;10.06;59.07;97852.81;4111329;28;21241;-82
2022/04/20 00:05:47;;;;;;;4.87;4.03;;;;;;;10.08;59.25;97855.31;4112343;28;20629;-82
2022/04/20 00:07:50;;;;;;;4.47;3.97;;;;;;;10.05;58.99;97845.91;4111320;28;21216;-81
2022/04/20 00:09:55;;;;;;;4.60;3.57;;;;;;;10.04;58.23;97849.47;4112993;28;20643;-81
2022/04/20 00:11:58;;;;;;;4.70;4.20;;;;;;;9.99;59.37;97842.91;4113593;28;20644;-80
2022/04/20 00:14:02;;;;;;;4.37;3.70;;;;;;;10.00;58.62;97853.22;4130772;28;21057;-81
2022/04/20 00:16:06;;;;;;;5.77;4.30;;;;;;;9.98;58.69;97852.53;4114187;28;20693;-80
2022/04/20 00:18:09;;;;;;;6.23;4.00;;;;;;;9.95;58.87;97849.28;4113348;28;20669;-82
2022/04/20 00:20:14;;;;;;;9.10;4.40;;;;;;;9.96;59.11;97850.94;4114045;28;20625;-82
2022/04/20 00:22:17;;;;;;;5.97;3.70;;;;;;;9.94;58.93;97852.84;4114987;28;21240;-82
2022/04/20 00:24:21;;;;;;;6.83;4.23;;;;;;;9.89;59.75;97845.31;4113775;28;21093;-82
2022/04/20 00:26:24;;;;;;;5.47;4.20;;;;;;;9.87;59.79;97854.97;4113633;28;20655;-82
2022/04/20 00:28:27;;;;;;;5.20;4.70;;;;;;;9.82;60.17;97852.78;4112472;28;20618;-83
2022/04/20 00:30:30;;;;;;;4.20;3.67;;;;;;;9.81;59.65;97844.16;4114698;28;20638;-85
2022/04/20 00:32:34;;;;;;;4.83;3.90;;;;;;;9.84;59.58;97850.94;4094756;29;20621;-85
2022/04/20 00:34:37;;;;;;;5.00;4.50;;;;;;;9.80;60.27;97845.09;4109586;28;20619;-85
2022/04/20 00:36:42;;;;;;;5.43;4.07;;;;;;;9.76;60.99;97846.25;4128194;28;20631;-85
2022/04/20 00:38:45;;;;;;;5.43;4.20;;;;;;;9.73;60.09;97845.66;4114190;28;20701;-85
2022/04/20 00:40:49;;;;;;;6.70;4.40;;;;;;;9.71;59.95;97844.91;4113356;28;20628;-85
2022/04/20 00:42:53;;;;;;;5.93;3.67;;;;;;;9.72;59.73;97843.97;4113318;28;20662;-85
2022/04/20 00:44:56;;;;;;;4.57;4.07;;;;;;;9.69;60.03;97842.41;4112562;28;20700;-85
2022/04/20 00:47:00;;;;;;;5.80;3.90;;;;;;;9.67;60.82;97840.88;4111747;28;20626;-85
2022/04/20 00:49:04;;;;;;;5.90;3.90;;;;;;;9.59;61.44;97838.78;4110524;28;20640;-85
2022/04/20 00:51:07;;;;;;;5.30;4.07;;;;;;;9.59;60.83;97830.13;4128510;28;21042;-85
2022/04/20 00:53:12;;;;;;;4.17;3.73;;;;;;;9.58;60.51;97836.28;4125567;28;20669;-85
2022/04/20 00:55:16;;;;;;;8.17;4.37;;;;;;;9.53;60.43;97844.41;4129971;28;20633;-85
2022/04/20 00:57:20;;;;;;;4.30;3.77;;;;;;;9.54;61.57;97840.03;4130842;28;20740;-85
2022/04/20 00:59:26;;;;;;;4.47;3.77;;;;;;;9.49;61.53;97835.13;4113178;28;20751;-85
2022/04/20 01:01:31;;;;;;;8.57;4.23;;;;;;;9.43;60.77;97837.31;4128280;28;20624;-85
2022/04/20 01:03:34;;;;;;;4.40;3.77;;;;;;;9.39;61.56;97841.06;4110287;28;20660;-85
2022/04/20 01:05:56;;;;;;;4.17;3.73;;;;;;;9.39;61.61;97835.84;4126568;28;20748;-85
2022/04/20 01:08:19;;;;;;;4.93;3.93;;;;;;;9.39;61.22;97839.28;4112138;28;20613;-84
2022/04/20 01:10:58;;;;;;;5.43;4.27;;;;;;;9.35;61.43;97842.22;4103963;28;20632;-84
2022/04/20 01:13:21;;;;;;;6.30;4.70;;;;;;;9.34;62.78;97840.53;4110381;28;20632;-85
2022/04/20 01:15:42;;;;;;;7.20;3.83;;;;;;;9.33;61.67;97838.88;4125817;28;21038;-85
2022/04/20 01:18:11;;;;;;;4.57;4.00;;;;;;;9.35;63.13;97841.38;4113793;28;20683;-85
2022/04/20 01:20:24;;;;;;;5.33;4.37;;;;;;;9.33;61.63;97843.25;4126020;28;20620;-85
2022/04/20 01:22:42;;;;;;;5.27;4.30;;;;;;;9.37;63.18;97857.69;4125635;28;20758;-85
2022/04/20 01:25:04;;;;;;;8.00;4.43;;;;;;;9.37;62.58;97845.53;4109624;28;20932;-85
2022/04/20 01:27:30;;;;;;;5.90;4.10;;;;;;;9.34;63.28;97856.16;4110996;28;20664;-85
2022/04/20 01:29:54;;;;;;;5.50;4.63;;;;;;;9.26;63.15;97849.78;4102247;28;20673;-85
2022/04/20 01:32:16;;;;;;;5.23;4.50;;;;;;;9.19;64.41;97853.75;4127146;28;20630;-85
2022/04/20 01:34:52;;;;;;;7.00;4.33;;;;;;;9.11;63.30;97851.66;4112434;28;20703;-85
2022/04/20 01:36:55;;;;;;;5.10;4.60;;;;;;;9.03;64.28;97855.69;4106218;28;20978;-85
2022/04/20 01:39:00;;;;;;;6.30;4.80;;;;;;;8.98;64.29;97853.41;4132351;28;20652;-85
2022/04/20 01:41:03;;;;;;;5.53;4.30;;;;;;;8.94;64.23;97840.69;4128654;28;20689;-85
2022/04/20 01:43:06;;;;;;;5.03;4.53;;;;;;;8.87;64.45;97846.41;4127161;28;21308;-85
2022/04/20 01:45:12;;;;;;;5.87;4.50;;;;;;;8.81;63.70;97845.03;4111863;28;21040;-85
2022/04/20 01:47:34;;;;;;;4.80;4.30;;;;;;;8.76;65.55;97851.47;4125019;28;20688;-85
2022/04/20 01:50:00;;;;;;;4.73;4.27;;;;;;;8.66;64.52;97840.00;4126008;28;21243;-85
2022/04/20 01:52:24;;;;;;;4.97;4.43;;;;;;;8.64;64.78;97836.66;4113422;28;21228;-85
2022/04/20 01:54:55;;;;;;;4.90;4.30;;;;;;;8.61;64.38;97835.09;4109352;28;20649;-85
2022/04/20 01:57:11;;;;;;;5.80;4.40;;;;;;;8.60;65.71;97836.03;4127106;28;21334;-85
2022/04/20 01:59:29;;;;;;;4.90;4.07;;;;;;;8.56;65.70;97836.34;4112943;28;21232;-85
2022/04/20 02:04:04;;;;;;;5.70;4.30;;;;;;;8.52;64.63;97837.44;4126778;28;20650;-85
2022/04/20 02:06:11;;;;;;;5.50;4.87;;;;;;;8.52;64.99;97835.72;4124250;28;20635;-85
2022/04/20 02:08:26;;;;;;;5.77;4.70;;;;;;;8.49;64.98;97841.09;4108243;28;20635;-85
2022/04/20 02:10:54;;;;;;;6.20;4.97;;;;;;;8.45;66.38;97844.81;4114519;28;20628;-85
2022/04/20 02:12:57;;;;;;;6.80;4.80;;;;;;;8.44;65.63;97838.91;4110825;28;20663;-85
2022/04/20 02:15:09;;;;;;;6.00;5.20;;;;;;;8.42;65.82;97839.00;4131361;28;21080;-85
2022/04/20 02:17:37;;;;;;;5.10;4.55;;;;;;;8.41;66.47;97839.91;4114122;28;20218;-85
2022/04/20 02:19:43;;;;;;;6.00;4.80;;;;;;;8.41;66.69;97831.28;4130947;28;20231;-85
2022/04/20 02:21:51;;;;;;;5.90;4.47;;;;;;;8.38;65.51;97837.50;4131835;28;20666;-85
2022/04/20 02:23:55;;;;;;;5.37;4.83;;;;;;;8.34;66.66;97835.19;4131330;28;20697;-85
2022/04/20 02:26:00;;;;;;;9.40;5.22;;;;;;;8.32;66.62;97840.50;4130780;28;20615;-85
2022/04/20 02:28:03;;;;;;;5.43;4.40;;;;;;;8.28;66.75;97839.00;4111724;28;20682;-85
2022/04/20 02:30:08;;;;;;;5.82;5.22;;;;;;;8.23;67.50;97841.06;4128815;28;20728;-84
2022/04/20 02:32:12;;;;;;;6.67;4.80;;;;;;;8.20;66.70;97830.88;4112633;28;20215;-85
2022/04/20 02:34:16;;;;;;;7.43;5.37;;;;;;;8.19;67.24;97829.19;4114710;28;20638;-85
2022/04/20 02:36:20;;;;;;;5.80;5.10;;;;;;;8.17;66.46;97830.25;4127407;28;21202;-85
2022/04/20 02:38:23;;;;;;;7.35;5.43;;;;;;;8.18;66.67;97830.16;4113969;28;20612;-85
2022/04/20 02:40:26;;;;;;;6.50;5.30;;;;;;;8.17;65.94;97825.88;4118276;28;20216;-85
2022/04/20 02:42:31;;;;;;;7.30;5.43;;;;;;;8.10;67.47;97824.59;4113036;28;21075;-85
2022/04/20 02:44:35;;;;;;;5.70;4.90;;;;;;;8.04;67.10;97829.31;4113940;28;20233;-85
2022/04/20 02:46:38;;;;;;;5.95;5.28;;;;;;;7.91;66.88;97819.78;4131097;28;20222;-85
2022/04/20 02:48:41;;;;;;;8.33;6.60;;;;;;;7.90;68.05;97820.72;4115285;28;20295;-85
2022/04/20 02:50:45;;;;;;;6.47;5.00;;;;;;;7.89;67.89;97824.22;4115567;28;20618;-85
2022/04/20 02:52:49;;;;;;;6.47;4.85;;;;;;;7.82;68.16;97820.34;4127806;28;20681;-85
2022/04/20 02:54:53;;;;;;;6.23;4.90;;;;;;;7.76;67.96;97821.56;4127930;28;20479;-85
2022/04/20 02:56:56;;;;;;;6.40;5.75;;;;;;;7.68;69.06;97818.63;4112765;28;21329;-85
2022/04/20 02:59:05;;;;;;;7.38;4.90;;;;;;;7.64;69.18;97829.28;4114891;28;20218;-85
2022/04/20 03:01:11;;;;;;;5.55;4.50;;;;;;;7.59;69.22;97829.56;4127546;28;20204;-84
2022/04/20 03:03:17;;;;;;;6.50;4.93;;;;;;;7.54;69.26;97828.16;4128150;28;20223;-85
2022/04/20 03:05:21;;;;;;;8.23;5.00;;;;;;;7.48;69.80;97821.56;4114806;28;20217;-85
2022/04/20 03:07:25;;;;;;;6.30;4.68;;;;;;;7.45;69.83;97828.72;4128825;28;20241;-85
2022/04/20 03:09:32;;;;;;;5.93;4.95;;;;;;;7.44;69.40;97827.03;4127246;28;20210;-85
2022/04/20 03:11:38;;;;;;;5.43;4.93;;;;;;;7.38;69.07;97823.97;4129213;28;20216;-85
2022/04/20 03:13:42;;;;;;;9.93;5.13;;;;;;;7.32;69.46;97832.97;4130180;28;20433;-85
2022/04/20 03:15:51;;;;;;;9.55;4.90;;;;;;;7.28;70.02;97823.72;4112231;28;20246;-85
2022/04/20 03:17:54;;;;;;;9.77;5.40;;;;;;;7.24;69.96;97839.53;4113453;28;20215;-85
2022/04/20 03:19:58;;;;;;;6.10;4.80;;;;;;;7.20;70.25;97838.03;4102352;28;20213;-85
2022/04/20 03:22:01;;;;;;;5.70;5.20;;;;;;;7.22;70.05;97837.03;4127254;28;20299;-85
2022/04/20 03:24:05;;;;;;;6.30;5.40;;;;;;;7.22;70.04;97842.22;4127551;28;20236;-85
2022/04/20 03:26:31;;;;;;;6.97;5.00;;;;;;;7.19;69.92;97837.22;4105547;28;20222;-85
2022/04/20 03:28:55;;;;;;;9.40;5.78;;;;;;;7.12;70.28;97840.25;4115296;28;20299;-85
2022/04/20 03:31:00;;;;;;;6.43;5.15;;;;;;;7.08;70.24;97833.56;4113900;28;20829;-85
2022/04/20 03:33:03;;;;;;;6.88;4.97;;;;;;;7.02;71.02;97838.28;4128934;28;20267;-85
2022/04/20 03:35:08;;;;;;;7.18;6.13;;;;;;;7.00;70.53;97835.78;4114390;28;20237;-86
2022/04/20 03:37:13;;;;;;;6.40;5.47;;;;;;;6.95;70.48;97837.81;4130940;28;20255;-84
2022/04/20 03:39:17;;;;;;;11.27;5.70;;;;;;;6.93;70.18;97836.22;4126968;28;20244;-85
2022/04/20 03:41:22;;;;;;;6.95;5.28;;;;;;;6.88;71.08;97839.09;4115438;28;20216;-85
2022/04/20 03:43:25;;;;;;;7.45;5.50;;;;;;;6.90;70.87;97834.69;4126558;28;20261;-85
2022/04/20 03:45:28;;;;;;;6.43;4.68;;;;;;;6.87;71.21;97836.59;4128609;28;20303;-85
2022/04/20 03:47:33;;;;;;;9.27;5.82;;;;;;;6.78;71.15;97842.28;4114932;28;20727;-84
2022/04/20 03:49:36;;;;;;;5.72;4.97;;;;;;;6.72;71.63;97842.66;4130357;28;20296;-85
2022/04/20 03:51:41;;;;;;;6.65;5.75;;;;;;;6.69;71.79;97845.41;4113946;28;20240;-85
2022/04/20 03:53:45;;;;;;;6.45;5.50;;;;;;;6.61;71.79;97842.44;4126218;28;20224;-85
2022/04/20 03:55:48;;;;;;;6.00;5.40;;;;;;;6.65;72.13;97839.59;4111189;28;20212;-85
2022/04/20 03:57:51;;;;;;;7.00;5.50;;;;;;;6.66;72.23;97838.66;4110322;28;20213;-85
2022/04/20 03:59:55;;;;;;;6.40;5.80;;;;;;;6.67;72.20;97842.09;4128217;28;20212;-85
2022/04/20 04:01:59;;;;;;;7.10;5.90;;;;;;;6.78;71.81;97843.16;4127167;28;20238;-85
2022/04/20 04:04:06;;;;;;;7.40;6.22;;;;;;;6.80;72.09;97840.47;4128825;28;20251;-85
2022/04/20 04:06:09;;;;;;;8.75;5.85;;;;;;;6.83;71.75;97846.31;4129131;28;20224;-85
2022/04/20 04:08:13;;;;;;;7.30;6.60;;;;;;;6.80;71.70;97840.47;4125527;28;20213;-85
2022/04/20 04:10:16;;;;;;;6.50;5.70;;;;;;;6.74;71.50;97843.41;4113149;28;20646;-84
2022/04/20 04:12:23;;;;;;;8.10;5.57;;;;;;;6.63;72.33;97849.19;4129307;28;20209;-85
2022/04/20 04:14:29;;;;;;;8.23;6.65;;;;;;;6.61;72.24;97839.84;4129792;28;20204;-85
2022/04/20 04:16:36;;;;;;;6.75;6.13;;;;;;;6.65;72.63;97839.59;4125748;28;20688;-85
2022/04/20 04:18:39;;;;;;;6.80;5.85;;;;;;;6.65;72.48;97843.94;4127294;28;20258;-85
2022/04/20 04:20:46;;;;;;;7.80;6.15;;;;;;;6.67;72.21;97845.50;4128527;28;20304;-84
2022/04/20 04:22:51;;;;;;;7.03;5.93;;;;;;;6.65;72.07;97843.94;4111527;28;20220;-85
2022/04/20 04:25:17;;;;;;;7.68;6.40;;;;;;;6.65;72.71;97849.94;4121940;28;20233;-84
2022/04/20 04:27:23;;;;;;;6.93;6.18;;;;;;;6.71;72.62;97844.41;4112494;28;20645;-85
2022/04/20 04:29:26;;;;;;;6.60;5.90;;;;;;;6.69;72.89;97850.59;4125747;28;20586;-85
2022/04/20 04:31:31;;;;;;;7.30;5.90;;;;;;;6.67;72.15;97844.69;4125860;28;20696;-84
2022/04/20 04:33:35;;;;;;;9.73;6.88;;;;;;;6.66;72.06;97845.59;4113231;28;20647;-85
2022/04/20 04:35:39;;;;;;;7.50;6.78;;;;;;;6.66;72.36;97845.59;4089420;29;20202;-84
2022/04/20 04:37:47;;;;;;;7.20;6.45;;;;;;;6.74;72.32;97844.25;4131303;28;20831;-84
2022/04/20 04:39:54;;;;;;;9.55;6.50;;;;;;;6.78;71.91;97850.06;4130565;28;20295;-85
2022/04/20 04:42:00;;;;;;;7.57;6.68;;;;;;;6.79;71.70;97843.97;4125289;28;20216;-85
2022/04/20 04:44:05;;;;;;;7.75;6.95;;;;;;;6.78;71.85;97850.06;4127544;28;20241;-84
2022/04/20 04:48:53;;;;;;;9.73;7.55;;;;;;;6.84;71.79;97853.16;4106453;28;20208;-85
2022/04/20 04:50:57;;;;;;;8.15;6.70;;;;;;;6.88;71.70;97848.63;4123060;28;20205;-85
2022/04/20 04:53:02;;;;;;;7.75;6.95;;;;;;;6.88;71.67;97854.63;4128686;28;20606;-85
2022/04/20 04:55:06;;;;;;;9.73;7.22;;;;;;;6.87;71.52;97852.13;4129392;28;20247;-84
2022/04/20 04:57:13;;;;;;;9.00;6.75;;;;;;;6.93;72.13;97851.78;4128815;28;20217;-84
2022/04/20 04:59:18;;;;;;;7.68;6.90;;;;;;;6.96;71.40;97856.78;4111272;28;20212;-84
2022/04/20 05:01:24;;;;;;;8.30;7.20;;;;;;;6.94;71.63;97848.28;4128271;28;20213;-85
2022/04/20 05:03:29;;;;;;;8.25;6.80;;;;;;;6.97;71.16;97851.53;4110328;28;20205;-85
2022/04/20 05:05:33;;;;;;;9.57;7.07;;;;;;;6.93;71.73;97849.19;4127218;28;20217;-84
2022/04/20 05:07:37;;;;;;;9.65;7.15;;;;;;;6.98;71.65;97849.78;4111107;28;20300;-85
2022/04/20 05:09:46;;;;;;;8.02;7.20;;;;;;;7.05;71.35;97846.72;4112063;28;20215;-85
2022/04/20 05:11:50;;;;;;;7.32;6.63;;;;;;;7.08;71.48;97841.34;4112922;28;20692;-84
2022/04/20 05:13:55;;;;;;;10.52;6.45;;;;;;;7.17;70.50;97848.59;4128658;28;20212;-85
2022/04/20 05:15:59;;;;;;;7.85;6.90;;;;;;;7.26;71.10;97848.91;4128882;28;20212;-85
2022/04/20 05:18:03;;;;;;;7.20;6.50;;;;;;;7.49;70.27;97841.41;4128026;28;20212;-85
2022/04/20 05:20:08;;;;;;;7.18;6.47;;;;;;;7.63;70.35;97849.19;4112533;28;20220;-84
2022/04/20 05:22:11;;;;;;;7.05;6.35;;;;;;;7.87;69.68;97839.91;4128172;28;20217;-84
2022/04/20 05:24:17;;;;;;;7.18;6.47;;;;;;;8.10;69.40;97852.28;4124664;28;20216;-84
2022/04/20 05:26:22;;;;;;;9.07;6.72;;;;;;;8.22;68.40;97844.59;4126107;28;20602;-85
2022/04/20 05:28:26;;;;;;;8.68;7.43;;;;;;;8.39;67.66;97854.78;4112711;28;20206;-84
2022/04/20 05:30:30;;;;;;;7.50;6.80;;;;;;;8.50;67.10;97855.75;4112753;28;20674;-84
2022/04/20 05:32:34;;;;;;;7.10;6.40;;;;;;;8.72;67.84;97856.03;4111596;28;20668;-84
2022/04/20 05:34:46;;;;;;;7.78;6.97;;;;;;;8.78;67.43;97855.66;4124098;28;20211;-84
2022/04/20 05:41:42;;;;;;;7.43;6.72;;;;;;;9.38;66.01;97851.56;4108506;28;20615;-84
2022/04/20 05:44:00;;;;;;;8.00;7.30;;;;;;;9.56;64.03;97849.41;4126924;28;20217;-85
2022/04/20 05:46:07;;;;;;;7.38;6.68;;;;;;;9.73;64.15;97853.47;4124305;28;20231;-85
2022/04/20 05:48:18;;;;;;;7.20;6.50;;;;;;;9.85;64.71;97854.25;4108787;28;20220;-85
2022/04/20 05:50:22;;;;;;;7.77;7.00;;;;;;;10.05;63.85;97858.94;4115395;28;20624;-85
2022/04/20 05:52:27;;;;;;;9.20;8.23;;;;;;;10.16;63.77;97848.59;4129197;28;20646;-85
2022/04/20 05:54:32;;;;;;;7.90;7.10;;;;;;;10.11;63.32;97855.91;4128027;28;20681;-85
2022/04/20 05:56:38;;;;;;;8.57;7.77;;;;;;;10.33;63.10;97858.69;4116903;28;20617;-84
2022/04/20 05:58:42;;;;;;;9.87;8.87;;;;;;;10.52;62.60;97852.03;4108856;28;20699;-85
2022/04/20 06:00:47;;;;;;;8.87;7.97;;;;;;;10.78;62.36;97857.97;4128794;28;20642;-85
2022/04/20 06:03:20;;;;;;;9.10;6.70;;;;;;;10.85;61.84;97858.25;4114219;28;21220;-84
2022/04/20 06:05:24;;;;;;;7.67;6.50;;;;;;;10.88;61.80;97865.88;4130859;28;20623;-84
2022/04/20 06:07:38;;;;;;;9.13;8.23;;;;;;;11.09;61.63;97869.47;4130789;28;20636;-85
2022/04/20 06:10:05;;;;;;;7.33;6.67;;;;;;;11.38;61.69;97875.97;4113462;28;21263;-85
2022/04/20 06:12:32;;;;;;;7.70;6.90;;;;;;;11.56;60.56;97866.78;4119367;28;21017;-84
2022/04/20 06:14:56;;;;;;;7.13;6.43;;;;;;;11.64;60.13;97877.50;4111386;28;20657;-84
2022/04/20 06:17:18;;;;;;;7.40;6.70;;;;;;;11.78;59.61;97883.34;4113745;28;20676;-85
2022/04/20 06:19:28;;;;;;;10.43;7.80;;;;;;;11.91;59.39;97877.06;4115592;28;20636;-83
2022/04/20 06:21:48;;;;;;;7.33;6.63;;;;;;;12.18;58.90;97877.53;4131063;28;20626;-83
2022/04/20 06:23:56;;;;;;;10.03;6.40;;;;;;;12.23;59.27;97880.63;4128112;28;20652;-84
2022/04/20 06:26:09;;;;;;;6.87;6.20;;;;;;;12.48;57.47;97888.19;4130283;28;20662;-85
2022/04/20 06:28:40;;;;;;;6.57;5.97;;;;;;;12.71;58.32;97880.19;4112847;28;20683;-84
2022/04/20 06:31:04;;;;;;;8.33;7.17;;;;;;;12.87;58.12;97880.63;4115327;28;20632;-85
2022/04/20 06:33:17;;;;;;;6.63;5.97;;;;;;;13.09;57.99;97881.38;4111980;28;20669;-85
2022/04/20 06:35:36;;;;;;;6.90;6.30;;;;;;;13.21;58.06;97888.25;4115532;28;20662;-85
2022/04/20 06:38:05;;;;;;;8.13;6.83;;;;;;;13.56;57.32;97891.41;4130768;28;20694;-85
2022/04/20 06:40:19;;;;;;;7.13;6.13;;;;;;;13.55;55.35;97884.50;4131462;28;20658;-84
2022/04/20 06:42:41;;;;;;;7.13;6.00;;;;;;;13.79;57.29;97885.91;4130422;28;20627;-85
2022/04/20 06:45:09;;;;;;;6.30;5.70;;;;;;;13.92;55.07;97876.88;4117032;28;20660;-85
2022/04/20 06:47:33;;;;;;;7.10;6.37;;;;;;;14.25;55.54;97881.88;4085249;28;21238;-85
2022/04/20 06:49:51;;;;;;;6.90;6.20;;;;;;;14.40;55.49;97885.78;4129742;28;20698;-85
2022/04/20 06:59:24;;;;;;;7.70;6.73;;;;;;;14.39;55.06;97882.34;4129026;28;20640;-85
2022/04/20 07:01:52;;;;;;;6.27;5.67;;;;;;;14.79;54.81;97886.59;4125153;28;20677;-85
2022/04/20 07:04:14;;;;;;;7.27;6.10;;;;;;;14.98;53.63;97880.56;4113835;28;20754;-85
2022/04/20 07:06:28;;;;;;;7.60;6.17;;;;;;;15.20;53.21;97878.53;4127087;28;20659;-85
2022/04/20 07:08:57;;;;;;;6.50;5.90;;;;;;;15.31;53.11;97881.00;4125127;28;21111;-85
2022/04/20 07:11:08;;;;;;;7.00;6.20;;;;;;;15.24;52.17;97872.00;4130068;28;20717;-85
2022/04/20 07:13:14;;;;;;;6.70;5.80;;;;;;;15.21;51.57;97877.53;4113306;28;20711;-85
2022/04/20 07:15:18;;;;;;;6.67;6.07;;;;;;;15.22;51.03;97880.03;4113088;28;20638;-85
2022/04/20 07:17:23;;;;;;;8.60;5.70;;;;;;;15.21;52.02;97874.91;4128832;28;21036;-85
2022/04/20 07:19:36;;;;;;;6.23;5.63;;;;;;;15.49;52.63;97874.09;4128584;28;20726;-85
2022/04/20 07:21:56;;;;;;;6.40;5.40;;;;;;;15.66;52.48;97875.00;4112264;28;20616;-85
2022/04/20 07:24:02;;;;;;;7.17;5.40;;;;;;;15.73;49.88;97867.41;4125254;28;20697;-85
2022/04/20 07:26:40;;;;;;;7.67;5.67;;;;;;;15.73;51.07;97872.66;4114284;28;20715;-85
2022/04/20 07:28:48;;;;;;;6.17;4.77;;;;;;;15.74;50.18;97867.25;4114254;28;21230;-85
2022/04/20 07:31:02;;;;;;;5.90;5.30;;;;;;;15.61;50.67;97869.34;4129146;28;20657;-85
2022/04/20 07:33:26;;;;;;;6.13;5.53;;;;;;;15.37;50.68;97869.94;4127073;28;20925;-85
2022/04/20 07:35:47;;;;;;;6.57;5.97;;;;;;;15.27;51.10;97884.88;4113526;28;20682;-85
2022/04/20 07:38:03;;;;;;;7.10;6.40;;;;;;;15.30;52.02;97869.66;4112249;28;20648;-85
2022/04/20 07:40:39;;;;;;;5.90;5.30;;;;;;;15.21;51.56;97875.72;4106042;28;21202;-84
2022/04/20 07:43:03;;;;;;;6.23;5.63;;;;;;;15.24;51.35;97875.44;4096419;29;20994;-84
2022/04/20 07:45:12;;;;;;;7.43;6.63;;;;;;;15.47;51.90;97881.25;4114151;28;21208;-85
2022/04/20 07:47:37;;;;;;;6.27;5.70;;;;;;;15.54;50.47;97891.06;4126768;28;20736;-85
2022/04/20 07:52:28;;;;;;;6.13;5.30;;;;;;;15.19;51.09;97876.84;4112971;28;20670;-85
2022/04/20 07:54:53;;;;;;;5.90;5.30;;;;;;;15.40;49.96;97881.00;4129551;28;20727;-85
2022/04/20 07:57:15;;;;;;;5.20;4.70;;;;;;;15.48;50.37;97867.16;4123652;28;20654;-85
2022/04/20 07:59:39;;;;;;;6.20;4.93;;;;;;;15.51;50.47;97872.13;4106036;28;20639;-85
2022/04/20 08:02:14;;;;;;;5.50;4.70;;;;;;;15.37;50.88;97875.19;4116093;28;20731;-85
2022/04/20 08:04:36;;;;;;;5.60;5.07;;;;;;;15.52;49.11;97890.41;4128019;28;20647;-85
2022/04/20 08:06:47;;;;;;;6.13;5.10;;;;;;;15.56;50.18;97876.00;4113089;28;21211;-85
2022/04/20 08:08:50;;;;;;;5.50;5.00;;;;;;;15.66;50.80;97880.25;4129082;28;20634;-85
2022/04/20 08:10:54;;;;;;;5.50;4.87;;;;;;;15.96;52.05;97882.69;4113744;28;20631;-85
2022/04/20 08:12:57;;;;;;;5.33;4.83;;;;;;;16.24;51.08;97876.56;4129529;28;20685;-85
2022/04/20 08:15:04;;;;;;;6.20;5.60;;;;;;;15.94;49.99;97882.00;4121564;28;21091;-85
2022/04/20 08:17:14;;;;;;;5.80;5.20;;;;;;;15.82;49.99;97888.41;4104930;28;20635;-85
2022/04/20 08:19:22;;;;;;;5.77;5.17;;;;;;;16.30;51.82;97891.78;4105078;28;20644;-84
2022/04/20 08:21:30;;;;;;;5.67;5.00;;;;;;;16.30;48.86;97889.13;4127136;28;20626;-85
2022/04/20 08:23:36;;;;;;;6.30;5.70;;;;;;;16.07;47.94;97893.88;4113586;28;21092;-85
2022/04/20 08:25:40;;;;;;;5.13;4.63;;;;;;;15.59;49.03;97892.34;4128671;28;20630;-85
2022/04/20 08:27:43;;;;;;;5.60;5.10;;;;;;;15.21;50.08;97898.56;4113186;28;20662;-84
2022/04/20 08:29:47;;;;;;;5.20;4.67;;;;;;;15.27;49.37;97885.69;4114478;28;21006;-84
2022/04/20 08:31:51;;;;;;;5.83;5.27;;;;;;;15.41;49.66;97893.19;4113207;28;20682;-85
2022/04/20 08:33:54;;;;;;;5.47;4.97;;;;;;;15.11;49.66;97895.09;4123537;28;20650;-85
2022/04/20 08:35:58;;;;;;;5.73;5.13;;;;;;;15.16;50.15;97888.44;4115730;28;20638;-85
2022/04/20 08:38:01;;;;;;;5.53;5.03;;;;;;;15.26;48.63;97889.31;4113304;28;20657;-85
2022/04/20 08:40:07;;;;;;;5.30;4.80;;;;;;;15.36;48.54;97886.66;4109838;28;20630;-85
2022/04/20 08:42:12;;;;;;;5.47;4.90;;;;;;;15.24;49.91;97879.88;4113321;28;20736;-85
2022/04/20 08:44:20;;;;;;;5.33;4.83;;;;;;;15.07;48.32;97879.72;4110551;28;20734;-85
2022/04/20 08:46:25;;;;;;;6.00;5.10;;;;;;;15.28;48.62;97881.28;4111281;28;20722;-83
2022/04/20 08:48:30;;;;;;;5.53;4.90;;;;;;;15.45;49.22;97880.59;4104923;28;21039;-82
2022/04/20 08:50:33;;;;;;;5.10;4.60;;;;;;;15.65;49.43;97865.47;4112732;28;21057;-82
2022/04/20 08:52:42;;;;;;;4.73;4.30;;;;;;;15.93;50.55;97876.91;4113941;28;20616;-83
2022/04/20 08:54:45;;;;;;;5.70;4.30;;;;;;;15.68;47.88;97869.59;4113346;28;21289;-82
2022/04/20 08:59:38;;;;;;;6.40;5.10;;;;;;;15.63;47.59;97867.41;4076068;28;20636;-85
2022/04/20 09:01:42;;;;;;;7.23;4.20;;;;;;;15.87;47.57;97851.97;4112211;28;20698;-85
2022/04/20 09:03:55;;;;;;;6.50;4.77;;;;;;;15.72;48.82;97858.66;4126241;28;20767;-83
2022/04/20 09:06:01;;;;;;;5.13;4.63;;;;;;;15.73;46.35;97862.13;4111148;28;20678;-84
2022/04/20 09:08:11;;;;;;;4.83;3.90;;;;;;;15.98;46.87;97861.50;4111324;28;20735;-84
2022/04/20 09:10:16;;;;;;;5.33;4.30;;;;;;;16.27;47.32;97857.84;4126904;28;20716;-83
2022/04/20 09:12:23;;;;;;;4.50;3.87;;;;;;;15.87;46.33;97864.31;4110592;28;20671;-83
2022/04/20 09:14:28;;;;;;;4.70;4.20;;;;;;;16.08;46.65;97855.25;4113116;28;20671;-84
2022/04/20 09:16:31;;;;;;;4.70;4.07;;;;;;;16.12;47.76;97852.19;4113751;28;21054;-84
2022/04/20 09:18:36;;;;;;;5.10;4.47;;;;;;;15.97;45.43;97860.69;4113629;28;20651;-83
2022/04/20 09:20:41;;;;;;;5.37;4.67;;;;;;;15.60;47.71;97851.09;4127875;28;20622;-83
2022/04/20 09:22:59;;;;;;;7.87;5.00;;;;;;;15.83;50.31;97858.53;4127141;28;20662;-84
2022/04/20 09:25:06;;;;;;;4.77;4.33;;;;;;;15.60;47.51;97854.53;4125269;28;20671;-83
2022/04/20 09:27:10;;;;;;;5.33;4.70;;;;;;;15.53;46.72;97855.25;4125830;28;21248;-83
2022/04/20 09:29:15;;;;;;;6.13;4.57;;;;;;;15.51;45.26;97856.38;4110603;28;20624;-83
2022/04/20 09:31:19;;;;;;;3.93;3.53;;;;;;;15.64;47.00;97855.09;4124262;28;20670;-84
2022/04/20 09:33:41;;;;;;;5.00;4.10;;;;;;;15.90;49.51;97849.06;4110534;28;20663;-84
2022/04/20 09:35:45;;;;;;;5.63;4.60;;;;;;;16.17;48.59;97855.19;4116989;28;21258;-84
2022/04/20 09:38:05;;;;;;;6.10;4.57;;;;;;;16.18;48.16;97846.34;4125635;28;21079;-84
2022/04/20 09:40:32;;;;;;;4.60;4.00;;;;;;;16.45;47.73;97850.81;4128219;28;20689;-84
2022/04/20 09:42:36;;;;;;;6.60;4.73;;;;;;;16.71;46.14;97842.06;4112732;28;20636;-84
2022/04/20 09:44:53;;;;;;;5.07;4.33;;;;;;;16.81;47.54;97848.94;4127588;28;20623;-84
2022/04/20 09:49:21;;;;;;;7.97;4.90;;;;;;;16.32;48.15;97845.06;4111582;28;20738;-83
2022/04/20 09:51:36;;;;;;;6.00;4.57;;;;;;;16.39;48.20;97848.75;4112612;28;20683;-83
2022/04/20 09:53:40;;;;;;;4.87;4.20;;;;;;;15.92;46.22;97855.03;4108489;28;20664;-83
2022/04/20 09:55:43;;;;;;;4.90;4.43;;;;;;;15.96;45.31;97843.22;4125624;28;20627;-84
2022/04/20 09:57:47;;;;;;;4.57;3.90;;;;;;;16.25;46.51;97842.19;4113801;28;20666;-84
2022/04/20 09:59:59;;;;;;;4.67;4.27;;;;;;;16.39;48.31;97840.84;4113797;28;20612;-84
2022/04/20 10:02:22;;;;;;;5.00;4.33;;;;;;;16.58;47.60;97834.53;4099296;28;20633;-84
2022/04/20 10:04:25;;;;;;;5.03;4.50;;;;;;;16.72;47.01;97828.75;4111071;28;20662;-84
2022/04/20 10:06:29;;;;;;;6.03;4.90;;;;;;;16.76;47.52;97831.91;4127265;28;20975;-83
2022/04/20 10:08:33;;;;;;;6.23;4.60;;;;;;;16.81;47.75;97827.00;4124842;28;21239;-84
2022/04/20 10:10:36;;;;;;;6.60;5.30;;;;;;;16.47;46.05;97818.09;4096558;28;20635;-84
2022/04/20 10:12:41;;;;;;;5.20;4.53;;;;;;;16.33;46.92;97817.78;4110239;28;20644;-84
2022/04/20 10:17:13;;;;;;;5.93;4.90;;;;;;;16.57;47.46;97817.06;4110771;28;20644;-84
2022/04/20 10:19:20;;;;;;;5.30;4.77;;;;;;;16.74;48.79;97808.34;4124991;28;20626;-84
2022/04/20 10:21:27;;;;;;;6.17;5.57;;;;;;;16.92;48.93;97811.00;4111641;28;21196;-84
2022/04/20 10:23:31;;;;;;;5.97;5.37;;;;;;;16.99;48.29;97813.72;4112327;28;20736;-84
2022/04/20 10:25:34;;;;;;;5.50;4.50;;;;;;;16.98;47.91;97804.13;4112660;28;21207;-84
2022/04/20 10:27:45;;;;;;;4.87;4.23;;;;;;;17.09;47.98;97803.09;4112638;28;20679;-84
2022/04/20 10:29:53;;;;;;;5.53;5.03;;;;;;;17.03;46.41;97809.81;4109418;28;20712;-83
2022/04/20 10:32:00;;;;;;;5.40;4.70;;;;;;;16.69;46.81;97805.34;4112120;28;20616;-84
2022/04/20 10:34:06;;;;;;;8.83;4.87;;;;;;;16.59;46.71;97807.19;4111162;28;21008;-84
2022/04/20 10:36:31;;;;;;;5.20;4.70;;;;;;;16.67;47.23;97796.78;4116148;28;20632;-84
2022/04/20 10:38:44;;;;;;;5.30;4.80;;;;;;;16.83;48.77;97794.28;4130626;28;20629;-84
2022/04/20 10:41:09;;;;;;;5.23;4.60;;;;;;;16.75;48.87;97796.84;4129160;28;20619;-84